Terminal Aerodrome Forecast
Issued by NWS Indianapolis, IN

Home | Current Version | Previous Version | Text Only | Print | Product List | Glossary On
Versions: 1 2 3 4 5 6 7 8 9 10 11 12 13 14 15 16 17 18 19 20 21 22 23 24 25 26 27 28 29 30 31 32 33 34 35
505
FTUS43 KIND 191415 AAA
TAFIND
TAF AMD
KIND 191415Z 1914/2018 11006KT P6SM OVC100
      TEMPO 1914/1916 4SM BR
     FM192000 12006KT P6SM VCSH OVC040
     FM192300 10006KT 4SM -SHRA OVC025
     FM200000 10007KT 3SM SHRA OVC020
     FM200400 11006KT 2SM SHRA OVC003
     FM201000 20004KT 2SM SHRA OVC003
     FM201200 22006KT P6SM OVC003=

USA.gov is the U.S. government's official web portal to all federal, state and local government web resources and services.